createdAt,value
2018-06-23T00:00:52.004Z,13.41
2018-06-23T00:01:51.914Z,13.33
2018-06-23T00:02:51.839Z,13.29
2018-06-23T00:03:51.757Z,13.29
2018-06-23T00:04:51.682Z,13.25
2018-06-23T00:05:51.595Z,13.15
2018-06-23T00:06:51.516Z,13.11
2018-06-23T00:07:51.430Z,13.10
2018-06-23T00:08:51.351Z,13.11
2018-06-23T00:09:51.273Z,13.10
2018-06-23T00:10:51.209Z,13.11
2018-06-23T00:11:51.101Z,13.12
2018-06-23T00:12:51.026Z,13.08
2018-06-23T00:13:50.940Z,13.11
2018-06-23T00:14:50.865Z,13.12
2018-06-23T00:15:50.784Z,13.22
2018-06-23T00:16:50.709Z,13.28
2018-06-23T00:17:50.613Z,13.19
2018-06-23T00:18:50.539Z,13.29
2018-06-23T00:19:50.461Z,13.26
2018-06-23T00:20:50.381Z,13.26
2018-06-23T00:21:50.296Z,13.25
2018-06-23T00:22:50.220Z,13.14
2018-06-23T00:23:50.130Z,13.12
2018-06-23T00:24:50.042Z,13.14
2018-06-23T00:25:49.971Z,13.14
2018-06-23T00:26:49.884Z,13.15
2018-06-23T00:27:49.806Z,13.15
2018-06-23T00:28:49.717Z,13.05
2018-06-23T00:29:49.639Z,13.04
2018-06-23T00:30:49.554Z,13.08
2018-06-23T00:31:49.482Z,12.93
2018-06-23T00:32:49.396Z,12.87
2018-06-23T00:33:49.317Z,12.92
2018-06-23T00:34:49.234Z,12.95
2018-06-23T00:35:49.161Z,12.93
2018-06-23T00:36:49.071Z,12.92
2018-06-23T00:37:48.995Z,12.92
2018-06-23T00:38:48.908Z,12.87
2018-06-23T00:39:48.830Z,12.90
2018-06-23T00:40:48.741Z,12.86
2018-06-23T00:41:48.670Z,12.90
2018-06-23T00:42:48.584Z,12.87
2018-06-23T00:43:48.492Z,12.87
2018-06-23T00:44:48.417Z,12.92
2018-06-23T00:45:48.332Z,12.97
2018-06-23T00:46:48.257Z,12.95
2018-06-23T00:47:48.175Z,12.97
2018-06-23T00:48:48.098Z,13.04
2018-06-23T00:49:48.005Z,13.10
2018-06-23T00:50:47.930Z,13.07
2018-06-23T00:51:47.846Z,13.03
2018-06-23T00:52:47.774Z,13.11
2018-06-23T00:53:47.687Z,13.12
2018-06-23T00:54:47.612Z,13.14
2018-06-23T00:55:47.521Z,13.11
2018-06-23T00:56:47.444Z,13.10
2018-06-23T00:57:47.360Z,13.14
2018-06-23T00:58:47.285Z,13.14
2018-06-23T00:59:47.193Z,13.12
2018-06-23T01:00:47.109Z,13.14
2018-06-23T01:01:47.033Z,13.11
2018-06-23T01:02:46.952Z,13.17
2018-06-23T01:03:46.877Z,13.17
2018-06-23T01:04:46.788Z,13.28
2018-06-23T01:05:46.713Z,13.32
2018-06-23T01:06:46.619Z,13.29
2018-06-23T01:07:46.548Z,13.26
2018-06-23T01:08:46.462Z,13.25
2018-06-23T01:09:46.389Z,13.28
2018-06-23T01:10:46.300Z,13.29
2018-06-23T01:11:46.222Z,13.30
2018-06-23T01:12:46.137Z,13.32
2018-06-23T01:13:46.064Z,13.32
2018-06-23T01:14:45.979Z,13.25
2018-06-23T01:15:45.897Z,13.28
2018-06-23T01:16:45.810Z,13.38
2018-06-23T01:17:45.722Z,13.29
2018-06-23T01:18:45.646Z,13.32
2018-06-23T01:19:45.573Z,13.29
2018-06-23T01:20:45.488Z,13.29
2018-06-23T01:21:45.401Z,13.32
2018-06-23T01:22:45.322Z,13.29
2018-06-23T01:23:45.239Z,13.28
2018-06-23T01:24:45.172Z,13.33
2018-06-23T01:25:45.075Z,13.38
2018-06-23T01:26:45.000Z,13.28
2018-06-23T01:27:44.909Z,13.33
2018-06-23T01:28:44.834Z,13.29
2018-06-23T01:29:44.749Z,13.25
2018-06-23T01:30:44.675Z,13.25
2018-06-23T01:31:44.585Z,13.25
2018-06-23T01:32:44.510Z,13.15
2018-06-23T01:33:44.424Z,13.29
2018-06-23T01:34:44.348Z,13.36
2018-06-23T01:35:44.277Z,13.33
2018-06-23T01:36:44.192Z,13.39
2018-06-23T01:37:44.110Z,13.41
2018-06-23T01:38:44.022Z,13.29
2018-06-23T01:39:43.939Z,13.29
2018-06-23T01:40:43.852Z,13.29
2018-06-23T01:41:43.778Z,13.36
2018-06-23T01:42:43.693Z,13.32
2018-06-23T01:43:43.613Z,13.41
2018-06-23T01:44:43.524Z,13.26
2018-06-23T01:45:43.454Z,13.32
2018-06-23T01:46:43.367Z,13.28
2018-06-23T01:47:43.295Z,13.29
2018-06-23T01:48:43.201Z,13.33
2018-06-23T01:49:43.123Z,13.32
2018-06-23T01:50:43.037Z,13.39
2018-06-23T01:51:42.965Z,13.38
2018-06-23T01:52:42.877Z,13.41
2018-06-23T01:53:42.801Z,13.30
2018-06-23T01:54:42.718Z,13.33
2018-06-23T01:55:42.643Z,13.32
2018-06-23T01:56:42.555Z,13.33
2018-06-23T01:57:42.478Z,13.38
2018-06-23T01:58:42.394Z,13.36
2018-06-23T01:59:42.312Z,13.41
2018-06-23T02:00:42.224Z,13.41
2018-06-23T02:01:42.156Z,13.33
2018-06-23T02:02:42.070Z,13.33
2018-06-23T02:03:41.990Z,13.39
2018-06-23T02:04:41.904Z,13.45
2018-06-23T02:05:41.829Z,13.39
2018-06-23T02:06:41.737Z,13.32
2018-06-23T02:07:41.659Z,13.32
2018-06-23T02:08:41.592Z,13.30
2018-06-23T02:09:41.491Z,13.36
2018-06-23T02:10:41.415Z,13.33
2018-06-23T02:11:41.332Z,13.44
2018-06-23T02:12:41.264Z,13.28
2018-06-23T02:13:41.167Z,13.33
2018-06-23T02:14:41.093Z,13.29
2018-06-23T02:15:41.000Z,13.28
2018-06-23T02:16:40.926Z,13.23
2018-06-23T02:17:40.844Z,13.20
2018-06-23T02:18:40.770Z,13.30
2018-06-23T02:19:40.677Z,13.25
2018-06-23T02:20:40.601Z,13.28
2018-06-23T02:21:40.517Z,13.29
2018-06-23T02:22:40.442Z,13.22
2018-06-23T02:23:40.358Z,13.22
2018-06-23T02:24:40.285Z,13.23
2018-06-23T02:25:40.190Z,13.26
2018-06-23T02:26:40.109Z,13.25
2018-06-23T02:27:40.032Z,13.29
2018-06-23T02:28:39.944Z,13.32
2018-06-23T02:29:39.872Z,13.23
2018-06-23T02:30:39.785Z,13.29
2018-06-23T02:31:39.705Z,13.29
2018-06-23T02:32:39.618Z,13.29
2018-06-23T02:33:39.547Z,13.22
2018-06-23T02:34:39.459Z,13.25
2018-06-23T02:35:39.381Z,13.23
2018-06-23T02:36:39.293Z,13.15
2018-06-23T02:37:39.216Z,13.11
2018-06-23T02:38:39.130Z,13.11
2018-06-23T02:39:39.059Z,13.19
2018-06-23T02:40:38.972Z,13.14
2018-06-23T02:41:38.893Z,13.15
2018-06-23T02:42:38.812Z,13.11
2018-06-23T02:43:38.735Z,13.19
2018-06-23T02:44:38.649Z,13.11
2018-06-23T02:45:38.560Z,13.12
2018-06-23T02:46:38.488Z,13.04
2018-06-23T02:47:38.392Z,13.03
2018-06-23T02:48:38.318Z,12.95
2018-06-23T02:49:38.234Z,12.96
2018-06-23T02:50:38.172Z,12.93
2018-06-23T02:51:38.069Z,12.96
2018-06-23T02:52:37.994Z,12.82
2018-06-23T02:53:37.907Z,12.83
2018-06-23T02:54:37.833Z,12.82
2018-06-23T02:55:37.750Z,12.85
2018-06-23T02:56:37.686Z,12.77
2018-06-23T02:57:37.580Z,12.72
2018-06-23T02:58:37.505Z,12.79
2018-06-23T02:59:37.423Z,12.77
2018-06-23T03:00:37.336Z,12.83
2018-06-23T03:01:37.262Z,12.77
2018-06-23T03:02:37.176Z,12.79
2018-06-23T03:03:37.098Z,12.82
2018-06-23T03:04:37.022Z,12.83
2018-06-23T03:05:36.934Z,12.77
2018-06-23T03:06:36.850Z,12.77
2018-06-23T03:07:36.776Z,12.82
2018-06-23T03:08:36.689Z,12.68
2018-06-23T03:09:36.612Z,12.67
2018-06-23T03:10:36.525Z,12.57
2018-06-23T03:11:36.445Z,12.67
2018-06-23T03:12:36.361Z,12.68
2018-06-23T03:13:36.288Z,12.59
2018-06-23T03:14:36.203Z,12.57
2018-06-23T03:15:36.111Z,12.54
2018-06-23T03:16:36.035Z,12.57
2018-06-23T03:17:35.946Z,12.54
2018-06-23T03:18:35.871Z,12.59
2018-06-23T03:19:35.789Z,12.42
2018-06-23T03:20:35.712Z,12.42
2018-06-23T03:21:35.621Z,12.50
2018-06-23T03:22:35.546Z,12.49
2018-06-23T03:23:35.462Z,12.60
2018-06-23T03:24:35.388Z,12.62
2018-06-23T03:25:35.303Z,12.59
2018-06-23T03:26:35.216Z,12.59
2018-06-23T03:27:35.137Z,12.65
2018-06-23T03:28:35.050Z,12.57
2018-06-23T03:29:34.976Z,12.56
2018-06-23T03:30:34.889Z,12.64
2018-06-23T03:31:34.812Z,12.70
2018-06-23T03:32:34.722Z,12.71
2018-06-23T03:33:34.649Z,12.74
2018-06-23T03:34:34.561Z,12.72
2018-06-23T03:35:34.493Z,12.78
2018-06-23T03:36:34.405Z,12.75
2018-06-23T03:37:34.314Z,12.79
2018-06-23T03:38:34.237Z,12.74
2018-06-23T03:39:34.155Z,12.82
2018-06-23T03:40:34.080Z,12.77
2018-06-23T03:41:33.990Z,12.82
2018-06-23T03:42:33.915Z,12.85
2018-06-23T03:43:33.825Z,12.79
2018-06-23T03:44:33.749Z,12.82
2018-06-23T03:45:33.667Z,12.85
2018-06-23T03:46:33.592Z,12.82
2018-06-23T03:47:33.502Z,12.85
2018-06-23T03:48:33.427Z,12.83
2018-06-23T03:49:33.336Z,12.92
2018-06-23T03:50:33.261Z,12.87
2018-06-23T03:51:33.179Z,12.90
2018-06-23T03:52:33.104Z,12.92
2018-06-23T03:53:33.012Z,12.93
2018-06-23T03:54:32.930Z,12.90
2018-06-23T03:55:32.854Z,12.96
2018-06-23T03:56:32.766Z,12.97
2018-06-23T03:57:32.709Z,12.96
2018-06-23T03:58:32.608Z,13.07
2018-06-23T03:59:32.528Z,13.03
2018-06-23T04:00:32.440Z,12.96
2018-06-23T04:01:32.367Z,13.00
2018-06-23T04:02:32.281Z,12.93
2018-06-23T04:03:32.200Z,12.89
2018-06-23T04:04:32.116Z,12.90
2018-06-23T04:05:32.040Z,13.01
2018-06-23T04:06:31.954Z,13.03
2018-06-23T04:07:31.872Z,12.96
2018-06-23T04:08:31.795Z,12.96
2018-06-23T04:09:31.701Z,12.96
2018-06-23T04:10:31.627Z,13.00
2018-06-23T04:11:31.579Z,12.95
2018-06-23T04:12:31.468Z,12.95
2018-06-23T04:13:31.383Z,12.93
2018-06-23T04:14:31.309Z,12.93
2018-06-23T04:15:31.216Z,12.96
2018-06-23T04:16:31.141Z,12.92
2018-06-23T04:17:31.057Z,12.87
2018-06-23T04:18:30.981Z,12.89
2018-06-23T04:19:30.889Z,12.89
2018-06-23T04:20:30.814Z,12.89
2018-06-23T04:21:30.729Z,12.87
2018-06-23T04:22:30.655Z,12.90
2018-06-23T04:23:30.583Z,12.87
2018-06-23T04:24:30.496Z,12.97
2018-06-23T04:25:30.408Z,13.01
2018-06-23T04:26:30.356Z,13.00
2018-06-23T04:27:30.246Z,13.03
2018-06-23T04:28:30.159Z,13.07
2018-06-23T04:29:30.083Z,13.04
2018-06-23T04:30:29.997Z,13.07
2018-06-23T04:31:29.916Z,13.05
2018-06-23T04:32:29.828Z,13.05
2018-06-23T04:33:29.761Z,13.03
2018-06-23T04:34:29.675Z,12.95
2018-06-23T04:35:29.645Z,13.07
2018-06-23T04:36:29.506Z,13.08
2018-06-23T04:37:29.429Z,12.96
2018-06-23T04:38:29.341Z,13.05
2018-06-23T04:39:29.272Z,13.11
2018-06-23T04:40:29.183Z,13.14
2018-06-23T04:41:29.105Z,13.11
2018-06-23T04:42:29.018Z,13.08
2018-06-23T04:43:28.946Z,13.01
2018-06-23T04:44:28.859Z,13.10
2018-06-23T04:45:28.787Z,13.11
2018-06-23T04:46:28.711Z,13.11
2018-06-23T04:47:28.619Z,13.05
2018-06-23T04:48:28.533Z,13.04
2018-06-23T04:49:28.459Z,13.05
2018-06-23T04:50:28.372Z,13.07
2018-06-23T04:51:28.281Z,13.10
2018-06-23T04:52:28.206Z,13.10
2018-06-23T04:53:28.154Z,13.22
2018-06-23T04:54:28.044Z,13.22
2018-06-23T04:55:27.962Z,13.23
2018-06-23T04:56:27.887Z,13.03
2018-06-23T04:57:27.796Z,12.95
2018-06-23T04:58:27.734Z,12.93
2018-06-23T04:59:27.640Z,12.90
2018-06-23T05:00:27.592Z,12.89
2018-06-23T05:01:27.472Z,12.87
2018-06-23T05:02:27.397Z,12.83
2018-06-23T05:03:27.307Z,12.83
2018-06-23T05:04:27.233Z,12.82
2018-06-23T05:05:27.163Z,12.90
2018-06-23T05:06:27.075Z,13.10
2018-06-23T05:07:26.988Z,13.33
2018-06-23T05:08:26.909Z,13.42
2018-06-23T05:09:26.819Z,13.29
2018-06-23T05:10:26.746Z,13.32
2018-06-23T05:11:26.662Z,13.25
2018-06-23T05:12:26.604Z,13.29
2018-06-23T05:13:26.499Z,13.26
2018-06-23T05:14:26.424Z,13.26
2018-06-23T05:15:26.333Z,13.39
2018-06-23T05:16:26.259Z,13.52
2018-06-23T05:17:26.172Z,13.51
2018-06-23T05:18:26.098Z,13.46
2018-06-23T05:19:26.015Z,13.64
2018-06-23T05:20:25.939Z,13.51
2018-06-23T05:21:25.858Z,13.51
2018-06-23T05:22:25.770Z,13.51
2018-06-23T05:23:25.690Z,13.51
2018-06-23T05:24:25.601Z,13.51
2018-06-23T05:25:25.526Z,13.62
2018-06-23T05:26:25.452Z,13.62
2018-06-23T05:27:25.361Z,13.75
2018-06-23T05:28:25.275Z,13.79
2018-06-23T05:29:25.203Z,13.73
2018-06-23T05:30:25.127Z,13.67
2018-06-23T05:31:25.037Z,13.42
2018-06-23T05:32:24.961Z,13.54
2018-06-23T05:33:24.885Z,13.45
2018-06-23T05:34:24.797Z,13.45
2018-06-23T05:35:24.714Z,13.51
2018-06-23T05:36:24.640Z,13.55
2018-06-23T05:37:24.551Z,13.62
2018-06-23T05:38:24.474Z,13.70
2018-06-23T05:39:24.391Z,13.66
2018-06-23T05:40:24.317Z,13.63
2018-06-23T05:41:24.226Z,13.67
2018-06-23T05:42:24.152Z,13.85
2018-06-23T05:43:24.060Z,13.89
2018-06-23T05:44:23.989Z,13.99
2018-06-23T05:45:23.903Z,14.14
2018-06-23T05:46:23.827Z,14.28
2018-06-23T05:47:23.736Z,14.12
2018-06-23T05:48:23.662Z,14.20
2018-06-23T05:49:23.575Z,14.18
2018-06-23T05:50:23.501Z,14.18
2018-06-23T05:51:23.425Z,14.27
2018-06-23T05:52:23.344Z,14.07
2018-06-23T05:53:23.249Z,14.10
2018-06-23T05:54:23.174Z,14.20
2018-06-23T05:55:23.092Z,14.03
2018-06-23T05:56:23.017Z,14.06
2018-06-23T05:57:22.944Z,14.09
2018-06-23T05:58:22.856Z,13.99
2018-06-23T05:59:22.779Z,13.99
2018-06-23T06:00:22.689Z,14.03
2018-06-23T06:01:22.618Z,14.07
2018-06-23T06:02:22.532Z,14.14
2018-06-23T06:03:22.454Z,14.14
2018-06-23T06:04:22.364Z,13.99
2018-06-23T06:05:22.288Z,13.89
2018-06-23T06:06:22.223Z,13.88
2018-06-23T06:07:22.129Z,13.82
2018-06-23T06:08:22.054Z,13.89
2018-06-23T06:09:21.967Z,13.88
2018-06-23T06:10:21.891Z,13.96
2018-06-23T06:11:21.807Z,14.06
2018-06-23T06:12:21.746Z,13.96
2018-06-23T06:13:21.643Z,14.06
2018-06-23T06:14:21.571Z,14.21
2018-06-23T06:15:21.477Z,14.03
2018-06-23T06:16:21.401Z,14.20
2018-06-23T06:17:21.335Z,14.27
2018-06-23T06:18:21.245Z,14.25
2018-06-23T06:19:21.167Z,14.27
2018-06-23T06:20:21.079Z,14.25
2018-06-23T06:21:21.003Z,14.29
2018-06-23T06:22:20.916Z,14.29
2018-06-23T06:23:20.844Z,14.22
2018-06-23T06:24:20.769Z,14.21
2018-06-23T06:25:20.679Z,14.24
2018-06-23T06:26:20.607Z,14.27
2018-06-23T06:27:20.522Z,14.27
2018-06-23T06:28:20.448Z,14.22
2018-06-23T06:29:20.370Z,14.20
2018-06-23T06:30:20.283Z,14.18
2018-06-23T06:31:20.192Z,14.14
2018-06-23T06:32:20.116Z,14.18
2018-06-23T06:33:20.046Z,14.06
2018-06-23T06:34:19.970Z,14.20
2018-06-23T06:35:19.878Z,14.21
2018-06-23T06:36:19.792Z,14.15
2018-06-23T06:37:19.719Z,14.14
2018-06-23T06:38:19.631Z,14.03
2018-06-23T06:39:19.560Z,14.09
2018-06-23T06:40:19.474Z,13.97
2018-06-23T06:41:19.393Z,14.02
2018-06-23T06:42:19.317Z,13.96
2018-06-23T06:43:19.234Z,14.00
2018-06-23T06:44:19.159Z,13.87
2018-06-23T06:45:19.073Z,13.87
2018-06-23T06:46:19.000Z,13.91
2018-06-23T06:47:18.919Z,13.89
2018-06-23T06:48:18.832Z,13.77
2018-06-23T06:49:18.751Z,13.73
2018-06-23T06:50:18.675Z,13.66
2018-06-23T06:51:18.584Z,13.63
2018-06-23T06:52:18.507Z,13.32
2018-06-23T06:53:18.431Z,13.33
2018-06-23T06:54:18.345Z,13.23
2018-06-23T06:55:18.272Z,13.32
2018-06-23T06:56:18.184Z,13.28
2018-06-23T06:57:18.108Z,13.29
2018-06-23T06:58:18.020Z,13.29
2018-06-23T06:59:17.950Z,13.22
2018-06-23T07:00:17.862Z,13.01
2018-06-23T07:01:17.785Z,13.08
2018-06-23T07:02:17.700Z,13.00
2018-06-23T07:03:17.620Z,12.96
2018-06-23T07:04:17.532Z,12.86
2018-06-23T07:05:17.465Z,12.82
2018-06-23T07:06:17.374Z,12.82
2018-06-23T07:07:17.296Z,12.82
2018-06-23T07:08:17.209Z,12.70
2018-06-23T07:09:17.134Z,12.77
2018-06-23T07:10:17.048Z,12.70
2018-06-23T07:11:16.976Z,12.79
2018-06-23T07:12:16.890Z,12.90
2018-06-23T07:13:16.808Z,12.96
2018-06-23T07:14:16.720Z,13.11
2018-06-23T07:15:16.651Z,13.22
2018-06-23T07:16:16.562Z,13.41
2018-06-23T07:17:16.489Z,13.48
2018-06-23T07:18:16.403Z,13.60
2018-06-23T07:19:16.323Z,13.64
2018-06-23T07:20:16.236Z,13.55
2018-06-23T07:21:16.161Z,13.64
2018-06-23T07:22:16.074Z,13.63
2018-06-23T07:23:16.005Z,13.69
2018-06-23T07:24:16.019Z,13.69
2018-06-23T07:25:15.837Z,13.79
2018-06-23T07:26:15.763Z,13.73
2018-06-23T07:27:15.675Z,13.89
2018-06-23T07:28:15.607Z,13.75
2018-06-23T07:29:15.528Z,13.75
2018-06-23T07:30:15.441Z,13.77
2018-06-23T07:31:15.352Z,13.79
2018-06-23T07:32:15.274Z,13.73
2018-06-23T07:33:15.185Z,13.63
2018-06-23T07:34:15.163Z,13.67
2018-06-23T07:35:15.149Z,13.60
2018-06-23T07:36:14.957Z,13.63
2018-06-23T07:37:14.861Z,13.44
2018-06-23T07:38:14.785Z,13.54
2018-06-23T07:39:14.730Z,13.75
2018-06-23T07:40:14.627Z,14.40
2018-06-23T07:41:14.558Z,15.10
2018-06-23T07:42:14.467Z,14.78
2018-06-23T07:43:14.387Z,14.75
2018-06-23T07:44:14.301Z,14.68
2018-06-23T07:45:14.228Z,14.62
2018-06-23T07:46:14.141Z,14.55
2018-06-23T07:47:14.062Z,14.69
2018-06-23T07:48:13.985Z,14.69
2018-06-23T07:49:13.902Z,14.77
2018-06-23T07:50:13.827Z,14.95
2018-06-23T07:51:13.743Z,14.80
2018-06-23T07:52:13.669Z,14.89
2018-06-23T07:53:13.589Z,14.91
2018-06-23T07:54:13.502Z,14.83
2018-06-23T07:55:13.431Z,14.88
2018-06-23T07:56:13.374Z,14.84
2018-06-23T07:57:13.266Z,15.07
2018-06-23T07:58:13.204Z,15.09
2018-06-23T07:59:13.125Z,15.11
2018-06-23T08:00:13.026Z,15.13
2018-06-23T08:01:12.958Z,15.07
2018-06-23T08:02:12.882Z,15.23
2018-06-23T08:03:12.789Z,15.23
2018-06-23T08:04:12.715Z,15.10
2018-06-23T08:05:12.638Z,15.20
2018-06-23T08:06:12.557Z,15.01
2018-06-23T08:07:12.480Z,14.86
2018-06-23T08:08:12.406Z,14.86
2018-06-23T08:09:12.314Z,14.92
2018-06-23T08:10:12.238Z,14.98
2018-06-23T08:11:12.167Z,15.09
2018-06-23T08:12:12.081Z,15.06
2018-06-23T08:13:12.009Z,15.02
2018-06-23T08:14:11.933Z,15.11
2018-06-23T08:15:11.855Z,15.36
2018-06-23T08:16:11.766Z,15.20
2018-06-23T08:17:11.693Z,15.41
2018-06-23T08:18:11.606Z,15.10
2018-06-23T08:19:11.531Z,14.96
2018-06-23T08:20:11.452Z,14.94
2018-06-23T08:21:11.373Z,15.07
2018-06-23T08:22:11.291Z,15.20
2018-06-23T08:23:11.220Z,15.13
2018-06-23T08:24:11.134Z,15.02
2018-06-23T08:25:11.053Z,15.01
2018-06-23T08:26:10.978Z,14.96
2018-06-23T08:27:10.908Z,14.89
2018-06-23T08:28:10.837Z,14.94
2018-06-23T08:29:10.746Z,14.91
2018-06-23T08:30:10.661Z,14.99
2018-06-23T08:31:10.581Z,14.86
2018-06-23T08:32:10.506Z,14.91
2018-06-23T08:33:10.420Z,14.77
2018-06-23T08:34:10.345Z,14.77
2018-06-23T08:35:10.267Z,14.62
2018-06-23T08:36:10.181Z,14.70
2018-06-23T08:37:10.106Z,14.89
2018-06-23T08:38:10.032Z,15.01
2018-06-23T08:39:09.948Z,15.03
2018-06-23T08:40:09.874Z,14.96
2018-06-23T08:41:09.794Z,14.95
2018-06-23T08:42:09.709Z,14.89
2018-06-23T08:43:09.636Z,14.95
2018-06-23T08:44:09.564Z,15.09
2018-06-23T08:45:09.471Z,15.23
2018-06-23T08:46:09.397Z,15.84
2018-06-23T08:47:09.329Z,15.87
2018-06-23T08:48:09.229Z,15.94
2018-06-23T08:49:09.219Z,16.24
2018-06-23T08:50:09.087Z,16.15
2018-06-23T08:51:08.995Z,16.21
2018-06-23T08:52:08.934Z,16.46
2018-06-23T08:53:08.842Z,16.45
2018-06-23T08:54:08.756Z,16.91
2018-06-23T08:55:08.690Z,16.76
2018-06-23T08:56:08.612Z,16.49
2018-06-23T08:57:08.535Z,16.53
2018-06-23T08:58:08.448Z,16.53
2018-06-23T08:59:08.374Z,16.43
2018-06-23T09:00:08.298Z,16.71
2018-06-23T09:01:08.237Z,16.52
2018-06-23T09:02:08.138Z,16.49
2018-06-23T09:03:08.060Z,16.45
2018-06-23T09:04:07.985Z,16.31
2018-06-23T09:05:07.911Z,16.42
2018-06-23T09:06:07.828Z,16.71
2018-06-23T09:07:07.744Z,16.68
2018-06-23T09:08:07.706Z,16.57
2018-06-23T09:09:07.596Z,16.48
2018-06-23T09:10:07.510Z,16.64
2018-06-23T09:11:07.440Z,16.76
2018-06-23T09:12:07.364Z,16.88
2018-06-23T09:13:07.286Z,16.68
2018-06-23T09:14:07.212Z,16.61
2018-06-23T09:15:07.139Z,16.75
2018-06-23T09:16:07.051Z,16.66
2018-06-23T09:17:06.975Z,16.46
2018-06-23T09:18:06.900Z,16.30
2018-06-23T09:19:06.809Z,16.48
2018-06-23T09:20:06.734Z,16.34
2018-06-23T09:21:06.672Z,16.34
2018-06-23T09:22:06.845Z,16.46
2018-06-23T09:23:06.511Z,16.48
2018-06-23T09:24:06.436Z,16.50
2018-06-23T09:25:06.347Z,16.35
2018-06-23T09:26:06.273Z,16.31
2018-06-23T09:27:06.205Z,16.35
2018-06-23T09:28:06.138Z,16.35
2018-06-23T09:29:06.039Z,16.48
2018-06-23T09:30:05.964Z,16.49
2018-06-23T09:31:05.886Z,16.38
2018-06-23T09:32:05.810Z,16.42
2018-06-23T09:33:05.740Z,16.43
2018-06-23T09:34:05.649Z,16.66
2018-06-23T09:35:05.579Z,16.56
2018-06-23T09:36:05.505Z,16.58
2018-06-23T09:37:05.436Z,16.73
2018-06-23T09:38:05.335Z,16.68
2018-06-23T09:39:05.266Z,16.48
2018-06-23T09:40:05.191Z,16.57
2018-06-23T09:41:05.117Z,16.41
2018-06-23T09:42:05.035Z,16.53
2018-06-23T09:43:04.951Z,16.52
2018-06-23T09:44:04.875Z,16.49
2018-06-23T09:45:04.804Z,16.52
2018-06-23T09:46:04.728Z,16.41
2018-06-23T09:47:04.638Z,16.63
2018-06-23T09:48:04.565Z,16.78
2018-06-23T09:49:04.488Z,16.53
2018-06-23T09:50:04.399Z,16.76
2018-06-23T09:51:04.328Z,16.75
2018-06-23T09:52:04.253Z,16.83
2018-06-23T09:53:04.193Z,16.81
2018-06-23T09:54:04.090Z,16.71
2018-06-23T09:55:04.022Z,16.58
2018-06-23T09:56:03.948Z,16.52
2018-06-23T09:57:03.867Z,16.78
2018-06-23T09:58:03.782Z,16.89
2018-06-23T09:59:03.700Z,16.88
2018-06-23T10:00:03.627Z,17.12
2018-06-23T10:01:03.556Z,17.14
2018-06-23T10:02:03.717Z,17.11
2018-06-23T10:03:03.388Z,17.31
2018-06-23T10:04:03.315Z,17.19
2018-06-23T10:05:03.245Z,17.33
2018-06-23T10:06:03.154Z,17.64
2018-06-23T10:07:03.084Z,18.60
2018-06-23T10:08:03.007Z,19.43
2018-06-23T10:09:02.927Z,19.18
2018-06-23T10:10:02.851Z,19.08
2018-06-23T10:11:02.769Z,18.73
2018-06-23T10:12:02.693Z,18.54
2018-06-23T10:13:02.620Z,18.14
2018-06-23T10:14:02.546Z,17.99
2018-06-23T10:15:02.467Z,17.95
2018-06-23T10:16:02.380Z,18.08
2018-06-23T10:17:02.321Z,18.29
2018-06-23T10:18:02.233Z,18.21
2018-06-23T10:19:02.155Z,18.08
2018-06-23T10:20:02.079Z,18.20
2018-06-23T10:21:02.004Z,18.36
2018-06-23T10:22:01.927Z,18.32
2018-06-23T10:23:01.844Z,18.51
2018-06-23T10:24:01.773Z,18.66
2018-06-23T10:25:01.693Z,18.87
2018-06-23T10:26:01.618Z,19.25
2018-06-23T10:27:01.548Z,19.68
2018-06-23T10:28:01.473Z,19.78
2018-06-23T10:29:01.396Z,19.80
2018-06-23T10:30:01.307Z,19.74
2018-06-23T10:31:01.231Z,19.78
2018-06-23T10:32:01.153Z,19.95
2018-06-23T10:33:01.086Z,19.86
2018-06-23T10:34:01.010Z,19.77
2018-06-23T10:35:00.930Z,19.65
2018-06-23T10:36:00.859Z,19.55
2018-06-23T10:37:00.778Z,19.04
2018-06-23T10:38:00.735Z,18.85
2018-06-23T10:39:00.621Z,18.81
2018-06-23T10:40:00.559Z,18.67
2018-06-23T10:41:00.469Z,18.73
2018-06-23T10:42:00.396Z,18.82
2018-06-23T10:43:00.324Z,19.19
2018-06-23T10:44:00.249Z,19.50
2018-06-23T10:45:00.172Z,19.88
2018-06-23T10:46:00.097Z,20.28
2018-06-23T10:47:00.022Z,20.84
2018-06-23T10:47:59.931Z,21.47
2018-06-23T10:48:59.860Z,21.49
2018-06-23T10:49:59.785Z,21.34
2018-06-23T10:50:59.706Z,20.95
2018-06-23T10:51:59.643Z,20.97
2018-06-23T10:52:59.570Z,21.37
2018-06-23T10:53:59.496Z,20.87
2018-06-23T10:54:59.426Z,20.77
2018-06-23T10:55:59.355Z,20.61
2018-06-23T10:56:59.277Z,20.70
2018-06-23T10:57:59.194Z,20.95
2018-06-23T10:58:59.123Z,20.80
2018-06-23T10:59:59.049Z,20.41
2018-06-23T11:00:58.989Z,22.05
2018-06-23T11:01:58.930Z,21.71
2018-06-23T11:02:58.833Z,22.39
2018-06-23T11:03:58.759Z,22.72
2018-06-23T11:04:58.923Z,23.66
2018-06-23T11:05:58.627Z,23.94
2018-06-23T11:06:58.547Z,24.08
2018-06-23T11:07:58.473Z,24.05
2018-06-23T11:08:58.395Z,24.52
2018-06-23T11:09:58.332Z,24.76
2018-06-23T11:10:58.262Z,23.25
2018-06-23T11:11:58.186Z,22.80
2018-06-23T11:12:58.123Z,22.77
2018-06-23T11:13:58.047Z,22.54
2018-06-23T11:14:57.989Z,22.47
2018-06-23T11:15:57.914Z,21.72
2018-06-23T11:16:57.839Z,21.42
2018-06-23T11:17:57.775Z,21.25
2018-06-23T11:18:57.700Z,20.82
2018-06-23T11:19:57.634Z,20.76
2018-06-23T11:20:57.576Z,20.59
2018-06-23T11:21:57.489Z,20.99
2018-06-23T11:22:57.422Z,20.95
2018-06-23T11:23:57.351Z,20.94
2018-06-23T11:24:57.275Z,20.87
2018-06-23T11:25:57.212Z,20.72
2018-06-23T11:26:57.141Z,20.58
2018-06-23T11:27:57.066Z,20.42
2018-06-23T11:28:56.999Z,21.17
2018-06-23T11:29:56.927Z,21.53
2018-06-23T11:30:56.853Z,21.44
2018-06-23T11:31:56.777Z,21.71
2018-06-23T11:32:56.715Z,21.62
2018-06-23T11:33:56.641Z,22.14
2018-06-23T11:34:56.561Z,22.30
2018-06-23T11:35:56.487Z,22.00
2018-06-23T11:36:56.413Z,22.05
2018-06-23T11:37:56.354Z,22.21
2018-06-23T11:38:56.282Z,22.02
2018-06-23T11:39:56.207Z,21.54
2018-06-23T11:40:56.127Z,21.19
2018-06-23T11:41:56.065Z,20.97
2018-06-23T11:42:55.985Z,21.01
2018-06-23T11:43:55.911Z,20.99
2018-06-23T11:44:55.843Z,21.19
2018-06-23T11:45:55.769Z,21.25
2018-06-23T11:46:55.702Z,20.98
2018-06-23T11:47:55.626Z,20.67
2018-06-23T11:48:55.549Z,21.35
2018-06-23T11:49:55.475Z,21.94
2018-06-23T11:50:55.404Z,22.09
2018-06-23T11:51:55.340Z,21.50
2018-06-23T11:52:55.262Z,21.32
2018-06-23T11:53:55.187Z,20.80
2018-06-23T11:54:55.116Z,20.32
2018-06-23T11:55:55.041Z,20.29
2018-06-23T11:56:54.972Z,19.77
2018-06-23T11:57:54.894Z,19.77
2018-06-23T11:58:54.828Z,19.78
2018-06-23T11:59:54.752Z,19.77
2018-06-23T12:00:54.680Z,19.95
2018-06-23T12:01:54.632Z,20.84
2018-06-23T12:02:54.526Z,21.72
2018-06-23T12:03:54.451Z,20.74
2018-06-23T12:04:54.377Z,20.26
2018-06-23T12:05:54.305Z,19.95
2018-06-23T12:06:54.233Z,19.69
2018-06-23T12:07:54.158Z,19.37
2018-06-23T12:08:54.096Z,19.37
2018-06-23T12:09:54.015Z,19.41
2018-06-23T12:10:53.945Z,19.41
2018-06-23T12:11:53.871Z,19.29
2018-06-23T12:12:53.795Z,19.04
2018-06-23T12:13:53.719Z,19.10
2018-06-23T12:14:53.639Z,19.80
2018-06-23T12:15:53.564Z,21.13
2018-06-23T12:16:53.495Z,21.59
2018-06-23T12:17:53.420Z,21.38
2018-06-23T12:18:53.341Z,20.58
2018-06-23T12:19:53.267Z,20.39
2018-06-23T12:20:53.202Z,19.94
2018-06-23T12:21:53.114Z,19.61
2018-06-23T12:22:53.044Z,19.65
2018-06-23T12:23:52.968Z,19.44
2018-06-23T12:24:52.904Z,19.62
2018-06-23T12:25:52.815Z,19.56
2018-06-23T12:26:52.744Z,19.69
2018-06-23T12:27:52.672Z,19.86
2018-06-23T12:28:52.609Z,19.86
2018-06-23T12:29:52.535Z,19.83
2018-06-23T12:30:52.457Z,19.98
2018-06-23T12:31:52.383Z,20.10
2018-06-23T12:32:52.309Z,20.33
2018-06-23T12:33:52.233Z,21.21
2018-06-23T12:34:52.154Z,22.02
2018-06-23T12:35:52.079Z,21.59
2018-06-23T12:36:52.007Z,21.31
2018-06-23T12:37:51.937Z,21.25
2018-06-23T12:38:51.860Z,20.98
2018-06-23T12:39:51.786Z,21.01
2018-06-23T12:40:51.705Z,20.94
2018-06-23T12:41:51.642Z,20.80
2018-06-23T12:42:51.571Z,20.69
2018-06-23T12:43:51.497Z,20.38
2018-06-23T12:44:51.425Z,20.24
2018-06-23T12:45:51.348Z,20.16
2018-06-23T12:46:51.269Z,19.98
2018-06-23T12:47:51.194Z,19.88
2018-06-23T12:48:51.123Z,19.83
2018-06-23T12:49:51.048Z,19.73
2018-06-23T12:50:50.969Z,19.74
2018-06-23T12:51:50.906Z,19.61